Time;durP1;ratioP1;P1;durP2;ratioP2;P2;SDS_P1;SDS_P2;PMS_P1;PMS_P2;Temp;Humidity;BMP_temperature;BMP_pressure;BME280_temperature;BME280_humidity;BME280_pressure;Samples;Min_cycle;Max_cycle;Signal;HPM_P1;HPM_P2
2023/04/21 00:01:48;;;;;;;13.38;5.93;;;;;;;15.99;59.09;98004.09;4455080;32;20081;-83
2023/04/21 00:04:16;;;;;;;14.77;5.65;;;;;;;16.13;58.68;97997.06;4455513;32;20366;-83
2023/04/21 00:06:44;;;;;;;11.38;4.90;;;;;;;15.76;59.71;98000.41;4457511;32;20147;-83
2023/04/21 00:09:11;;;;;;;13.70;4.90;;;;;;;15.08;60.72;97993.38;4457713;32;20426;-83
2023/04/21 00:11:38;;;;;;;10.43;4.22;;;;;;;15.52;59.59;97989.75;4458127;32;20085;-83
2023/04/21 00:14:05;;;;;;;9.45;3.58;;;;;;;15.36;59.24;97989.06;4457750;32;20081;-83
2023/04/21 00:16:32;;;;;;;9.27;3.12;;;;;;;15.80;55.38;97988.84;4457680;32;20101;-83
2023/04/21 00:18:59;;;;;;;12.95;3.55;;;;;;;15.40;55.11;97990.53;4457773;32;20101;-83
2023/04/21 00:21:26;;;;;;;11.40;3.47;;;;;;;15.03;56.45;97982.44;4457967;32;20423;-83
2023/04/21 00:23:53;;;;;;;8.40;3.22;;;;;;;14.85;57.30;97991.34;4457288;32;20077;-83
2023/04/21 00:26:19;;;;;;;7.45;3.20;;;;;;;14.91;56.36;97981.44;4457684;32;20101;-82
2023/04/21 00:28:46;;;;;;;5.25;2.22;;;;;;;15.36;51.96;97987.28;4457294;32;20740;-82
2023/04/21 00:31:13;;;;;;;10.10;3.33;;;;;;;15.02;51.82;97989.41;4457031;32;20455;-82
2023/04/21 00:33:40;;;;;;;9.95;2.92;;;;;;;15.09;52.27;97987.22;4457230;32;20136;-82
2023/04/21 00:36:07;;;;;;;9.77;3.58;;;;;;;15.74;50.86;97987.50;4457616;32;20096;-82
2023/04/21 00:38:34;;;;;;;10.35;2.72;;;;;;;15.70;49.25;97980.81;4443349;32;20101;-82
2023/04/21 00:41:01;;;;;;;6.30;2.50;;;;;;;15.50;49.10;97974.25;4457647;32;20119;-83
2023/04/21 00:43:28;;;;;;;10.60;3.28;;;;;;;16.27;47.07;97972.72;4457515;32;20104;-83
2023/04/21 00:45:55;;;;;;;12.65;2.95;;;;;;;16.66;46.28;97976.97;4456992;32;20120;-83
2023/04/21 00:48:22;;;;;;;10.23;3.15;;;;;;;16.90;45.33;97973.66;4457500;32;20123;-82
2023/04/21 00:50:48;;;;;;;14.52;2.97;;;;;;;17.62;43.57;97980.66;4457271;32;20062;-83
2023/04/21 00:53:16;;;;;;;9.50;2.87;;;;;;;17.49;43.55;97979.88;4457705;32;20349;-82
2023/04/21 00:55:42;;;;;;;9.35;3.05;;;;;;;17.77;43.38;97980.53;4443824;32;20104;-83
2023/04/21 00:58:09;;;;;;;12.32;3.20;;;;;;;17.75;43.07;97978.00;4457243;32;20093;-83
2023/04/21 01:00:38;;;;;;;14.05;3.35;;;;;;;18.20;41.97;97978.19;4457416;32;20142;-83
2023/04/21 01:03:06;;;;;;;8.45;2.80;;;;;;;17.89;42.10;97984.84;4457165;32;20081;-83
2023/04/21 01:05:34;;;;;;;7.47;3.08;;;;;;;17.97;42.04;97982.53;4457090;32;20119;-83
2023/04/21 01:08:01;;;;;;;11.73;3.83;;;;;;;17.89;42.74;97977.03;4443372;32;20163;-82
2023/04/21 01:10:28;;;;;;;10.80;3.65;;;;;;;16.66;46.29;97978.75;4442853;32;20603;-82
2023/04/21 01:12:55;;;;;;;10.57;4.12;;;;;;;16.45;47.97;97974.06;4456542;32;20081;-83
2023/04/21 01:15:22;;;;;;;11.77;4.47;;;;;;;17.00;47.21;97972.06;4456895;32;20111;-83
2023/04/21 01:17:52;;;;;;;11.12;4.40;;;;;;;16.65;48.27;97972.72;4456644;32;20158;-82
2023/04/21 01:20:19;;;;;;;14.50;4.60;;;;;;;17.04;47.86;97966.56;4456406;32;20122;-83
2023/04/21 01:22:48;;;;;;;13.27;4.28;;;;;;;17.43;46.77;97966.44;4456597;32;20077;-83
2023/04/21 01:25:16;;;;;;;10.70;4.45;;;;;;;17.60;46.01;97964.28;4456691;32;20093;-83
2023/04/21 01:27:43;;;;;;;12.70;4.70;;;;;;;16.42;49.93;97963.03;4456404;32;20109;-82
2023/04/21 01:30:10;;;;;;;11.70;4.68;;;;;;;15.72;51.38;97965.09;4456905;32;20080;-83
2023/04/21 01:32:37;;;;;;;11.73;4.43;;;;;;;16.06;51.18;97971.56;4456671;32;20081;-83
2023/04/21 01:35:05;;;;;;;15.57;4.57;;;;;;;16.80;48.10;97975.22;4456248;32;20122;-83
2023/04/21 01:37:32;;;;;;;9.75;4.10;;;;;;;17.04;47.18;97970.94;4456673;32;20162;-83
2023/04/21 01:40:03;;;;;;;13.13;4.07;;;;;;;17.12;47.06;97983.41;4456193;32;20424;-83
2023/04/21 01:42:33;;;;;;;9.57;4.00;;;;;;;17.44;46.10;97974.16;4456563;32;20103;-83
2023/04/21 01:45:00;;;;;;;11.60;4.35;;;;;;;17.42;45.89;97980.41;4456400;32;20093;-83
2023/04/21 01:47:27;;;;;;;8.40;3.17;;;;;;;17.18;46.20;97978.63;4456204;32;20093;-83
2023/04/21 01:49:54;;;;;;;11.15;3.85;;;;;;;16.89;46.70;97972.81;4456350;32;20085;-82
2023/04/21 01:52:21;;;;;;;14.57;3.97;;;;;;;16.93;46.59;97973.47;4456798;32;20081;-83
2023/04/21 01:54:48;;;;;;;10.48;4.45;;;;;;;16.25;48.31;97971.13;4456416;32;20097;-82
2023/04/21 01:57:15;;;;;;;14.15;4.35;;;;;;;16.37;48.55;97967.72;4442726;32;20120;-83
2023/04/21 01:59:43;;;;;;;12.07;4.30;;;;;;;16.37;48.55;97968.53;4456420;32;20436;-83
2023/04/21 02:02:10;;;;;;;10.68;4.57;;;;;;;16.32;49.01;97980.22;4456176;32;20072;-83
2023/04/21 02:04:37;;;;;;;13.77;4.35;;;;;;;16.38;48.63;97972.84;4456338;32;20398;-83
2023/04/21 02:07:04;;;;;;;11.70;4.30;;;;;;;16.11;49.17;97979.88;4456721;32;20154;-82
2023/04/21 02:09:31;;;;;;;12.80;4.32;;;;;;;15.91;49.74;97978.56;4456716;32;20097;-83
2023/04/21 02:11:59;;;;;;;10.68;3.97;;;;;;;16.13;49.80;97975.41;4456825;32;20073;-83
2023/04/21 02:14:26;;;;;;;11.82;4.15;;;;;;;16.22;49.73;97977.38;4457360;32;20116;-83
2023/04/21 02:16:54;;;;;;;11.48;4.12;;;;;;;16.33;49.38;97972.28;4456921;32;20455;-83
2023/04/21 02:19:22;;;;;;;13.77;4.20;;;;;;;16.28;50.15;97979.59;4457225;32;20158;-83
2023/04/21 02:21:49;;;;;;;9.68;3.75;;;;;;;16.13;50.74;97965.81;4457517;32;20111;-83
2023/04/21 02:24:16;;;;;;;12.63;5.00;;;;;;;16.52;49.48;97969.28;4457218;32;20072;-83
2023/04/21 02:26:43;;;;;;;13.25;4.60;;;;;;;16.68;49.51;97967.31;4457554;32;20113;-83
2023/04/21 02:29:10;;;;;;;11.82;4.40;;;;;;;16.80;48.58;97970.03;4455952;32;20141;-83
2023/04/21 02:31:37;;;;;;;12.45;3.95;;;;;;;16.98;48.35;97966.97;4457085;32;20077;-83
2023/04/21 02:34:24;;;;;;;12.30;4.07;;;;;;;17.11;48.16;97971.31;4457153;32;20093;-83
2023/04/21 02:36:50;;;;;;;11.32;4.18;;;;;;;16.81;49.51;97969.09;4456824;32;20108;-83
2023/04/21 02:39:17;;;;;;;12.60;4.35;;;;;;;16.37;50.84;97967.72;4456894;32;20157;-83
2023/04/21 02:41:45;;;;;;;10.85;4.32;;;;;;;16.68;50.10;97966.50;4457167;32;20095;-83
2023/04/21 02:44:12;;;;;;;11.65;5.03;;;;;;;16.94;49.24;97967.31;4456713;32;20154;-83
2023/04/21 02:46:40;;;;;;;11.27;4.75;;;;;;;16.53;50.36;97968.34;4457487;32;20088;-83
2023/04/21 02:49:08;;;;;;;13.00;5.47;;;;;;;16.65;50.78;97961.47;4457484;32;20085;-83
2023/04/21 02:51:35;;;;;;;11.27;4.50;;;;;;;15.81;53.20;97974.91;4457337;32;20446;-83
2023/04/21 02:54:02;;;;;;;11.05;3.80;;;;;;;16.51;51.66;97977.22;4457547;32;20101;-83
2023/04/21 02:56:30;;;;;;;12.88;4.85;;;;;;;16.27;51.86;97970.12;4443642;32;20444;-83
2023/04/21 02:58:57;;;;;;;11.60;4.80;;;;;;;16.46;51.86;97970.53;4457103;32;20435;-83
2023/04/21 03:01:24;;;;;;;12.43;4.37;;;;;;;16.49;51.67;97975.56;4457545;32;20073;-83
2023/04/21 03:03:51;;;;;;;10.57;3.80;;;;;;;16.37;51.96;97962.50;4457468;32;20077;-83
2023/04/21 03:06:18;;;;;;;8.88;3.70;;;;;;;16.83;50.49;97975.03;4457067;32;20097;-84
2023/04/21 03:08:45;;;;;;;11.00;4.20;;;;;;;16.50;51.46;97963.34;4457464;32;20062;-83
2023/04/21 03:11:12;;;;;;;10.27;3.90;;;;;;;16.66;51.22;97968.34;4456555;32;20104;-83
2023/04/21 03:13:39;;;;;;;10.65;4.10;;;;;;;17.45;49.07;97959.34;4457165;32;20166;-83
2023/04/21 03:16:06;;;;;;;12.30;3.75;;;;;;;16.88;50.10;97965.13;4457102;32;20107;-83
2023/04/21 03:18:36;;;;;;;11.93;3.95;;;;;;;17.26;49.40;97967.66;4456511;32;20500;-83
2023/04/21 03:21:03;;;;;;;12.52;4.15;;;;;;;16.81;49.80;97964.72;4457095;32;20072;-83
2023/04/21 03:23:29;;;;;;;11.05;3.58;;;;;;;16.65;50.46;97977.09;4456866;32;20163;-83
2023/04/21 03:25:56;;;;;;;9.98;3.80;;;;;;;16.32;51.10;97967.19;4456761;32;20099;-83
2023/04/21 03:28:23;;;;;;;9.23;3.72;;;;;;;17.06;49.65;97971.66;4456608;32;20150;-83
2023/04/21 03:30:50;;;;;;;8.77;3.72;;;;;;;16.89;50.17;97975.44;4456607;32;20069;-83
2023/04/21 03:33:17;;;;;;;10.90;4.00;;;;;;;16.52;51.22;97965.84;4456623;32;20093;-84
2023/04/21 03:35:44;;;;;;;10.52;4.12;;;;;;;16.32;51.67;97969.81;4456578;32;20134;-83
2023/04/21 03:38:11;;;;;;;11.02;4.30;;;;;;;16.74;50.79;97968.69;4456225;32;20100;-83
2023/04/21 03:40:38;;;;;;;12.43;4.50;;;;;;;17.05;50.17;97972.59;4456557;32;20530;-83
2023/04/21 03:43:04;;;;;;;9.25;4.18;;;;;;;16.77;51.01;97969.28;4457965;32;20128;-83
2023/04/21 03:45:34;;;;;;;9.68;3.85;;;;;;;16.64;51.13;97968.44;4458193;32;20403;-83
2023/04/21 03:48:01;;;;;;;8.82;3.80;;;;;;;16.71;50.97;97968.91;4457912;32;20089;-83
2023/04/21 03:50:28;;;;;;;13.85;4.25;;;;;;;16.98;50.40;97976.56;4458051;32;20113;-83
2023/04/21 03:52:55;;;;;;;13.18;4.12;;;;;;;16.83;50.71;97975.88;4457923;32;20081;-83
2023/04/21 03:55:22;;;;;;;10.18;4.03;;;;;;;16.55;51.62;97971.69;4457778;32;20093;-83
2023/04/21 03:57:49;;;;;;;11.48;4.00;;;;;;;16.39;52.46;97971.91;4458000;32;20085;-83
2023/04/21 04:00:16;;;;;;;12.80;4.10;;;;;;;16.33;52.39;97985.31;4457774;32;20474;-83
2023/04/21 04:02:43;;;;;;;11.15;3.90;;;;;;;16.89;51.18;97979.81;4457804;32;20104;-83
2023/04/21 04:05:10;;;;;;;10.95;3.90;;;;;;;16.99;50.50;97984.28;4457869;32;20085;-83
2023/04/21 04:07:38;;;;;;;10.63;3.80;;;;;;;17.07;50.58;97986.34;4457219;32;20089;-82
2023/04/21 04:10:05;;;;;;;11.18;3.72;;;;;;;16.67;51.51;97980.44;4457735;32;20424;-83
2023/04/21 04:12:32;;;;;;;11.25;4.15;;;;;;;16.49;53.05;97985.97;4457252;32;20104;-83
2023/04/21 04:15:00;;;;;;;9.48;3.80;;;;;;;16.54;53.82;97977.00;4456812;32;20162;-83
2023/04/21 04:17:26;;;;;;;8.82;3.67;;;;;;;16.73;53.53;97975.66;4457208;32;20077;-83
2023/04/21 04:19:53;;;;;;;9.43;3.47;;;;;;;17.13;52.32;97988.56;4457109;32;20156;-83
2023/04/21 04:22:20;;;;;;;9.55;3.90;;;;;;;17.82;49.72;97983.63;4457296;32;20105;-83
2023/04/21 04:24:47;;;;;;;11.68;3.92;;;;;;;18.09;47.99;97983.38;4457081;32;20096;-77
2023/04/21 04:27:14;;;;;;;10.45;3.90;;;;;;;18.01;48.10;97985.72;4456897;32;20161;-76
2023/04/21 04:29:42;;;;;;;13.07;3.70;;;;;;;18.10;47.97;97993.72;4456554;32;20150;-77
2023/04/21 04:32:10;;;;;;;10.80;3.95;;;;;;;18.24;47.43;97986.63;4456836;32;20146;-81
2023/04/21 04:34:37;;;;;;;9.32;3.90;;;;;;;18.42;46.85;97996.53;4442788;32;20100;-82
2023/04/21 04:37:05;;;;;;;10.77;3.62;;;;;;;18.92;45.33;97996.25;4456613;32;20103;-82
2023/04/21 04:39:32;;;;;;;10.50;3.70;;;;;;;19.35;43.96;98004.16;4456686;32;20115;-81
2023/04/21 04:42:00;;;;;;;10.73;4.03;;;;;;;18.81;44.76;98004.91;4456868;32;20500;-81
2023/04/21 04:44:27;;;;;;;9.88;3.45;;;;;;;18.87;44.92;97999.22;4456600;32;20093;-81
2023/04/21 04:46:54;;;;;;;9.10;3.95;;;;;;;18.72;45.40;97998.63;4456832;32;20148;-81
2023/04/21 04:49:21;;;;;;;10.75;3.47;;;;;;;18.79;45.61;98010.25;4456562;32;20073;-81
2023/04/21 04:51:49;;;;;;;10.82;3.92;;;;;;;18.92;45.43;97998.84;4456221;32;20112;-81
2023/04/21 04:54:16;;;;;;;12.02;4.60;;;;;;;19.52;44.01;98008.91;4442766;32;20166;-81
2023/04/21 04:56:44;;;;;;;10.18;4.20;;;;;;;18.95;45.23;98014.31;4456401;32;20089;-81
2023/04/21 04:59:11;;;;;;;23.58;5.57;;;;;;;19.15;45.56;98011.00;4456743;32;20077;-81
2023/04/21 05:01:39;;;;;;;12.75;5.00;;;;;;;19.59;45.33;98017.16;4456612;32;20093;-81
2023/04/21 05:04:06;;;;;;;12.00;4.78;;;;;;;20.33;43.12;98025.09;4456316;32;20097;-81
2023/04/21 05:06:33;;;;;;;12.75;5.15;;;;;;;21.25;41.67;98020.75;4456685;32;20145;-81
2023/04/21 05:09:00;;;;;;;13.23;5.40;;;;;;;22.16;39.89;98020.56;4456545;32;20076;-81
2023/04/21 05:11:27;;;;;;;13.60;4.57;;;;;;;23.14;37.75;98024.69;4456143;32;20089;-81
2023/04/21 05:13:54;;;;;;;11.88;4.47;;;;;;;24.16;35.65;98019.22;4456564;32;20092;-82
2023/04/21 05:16:21;;;;;;;11.02;5.00;;;;;;;25.20;33.88;98027.22;4456745;32;20157;-82
2023/04/21 05:18:52;;;;;;;11.43;5.18;;;;;;;26.07;32.02;98032.16;4456133;32;20089;-82
2023/04/21 05:21:26;;;;;;;15.80;5.18;;;;;;;26.77;30.04;98029.81;4456397;32;20156;-82
2023/04/21 05:23:55;;;;;;;13.68;5.03;;;;;;;27.74;29.04;98032.34;4456614;32;20467;-82
2023/04/21 05:26:23;;;;;;;12.95;4.35;;;;;;;28.03;29.04;98029.84;4456138;32;20459;-82
2023/04/21 05:28:50;;;;;;;11.90;4.22;;;;;;;28.65;27.36;98034.19;4442512;32;20422;-82
2023/04/21 05:31:16;;;;;;;11.05;4.12;;;;;;;28.39;27.25;98035.44;4456452;32;20096;-82
2023/04/21 05:33:43;;;;;;;14.00;4.25;;;;;;;27.50;28.29;98033.28;4456851;32;20119;-82
2023/04/21 05:36:11;;;;;;;13.20;4.65;;;;;;;27.56;27.37;98036.06;4456655;32;20100;-82
2023/04/21 05:38:38;;;;;;;10.65;4.28;;;;;;;27.55;27.51;98039.72;4455833;32;20124;-82
2023/04/21 05:41:05;;;;;;;9.65;3.87;;;;;;;27.58;28.54;98030.59;4456301;32;20096;-82
2023/04/21 05:43:32;;;;;;;11.38;4.90;;;;;;;27.22;29.01;98036.38;4456246;32;20469;-82
2023/04/21 05:46:06;;;;;;;11.90;3.30;;;;;;;26.23;30.73;98048.00;4455873;32;20104;-82
2023/04/21 05:48:33;;;;;;;13.05;3.92;;;;;;;24.36;29.75;98039.22;4442360;32;20580;-82
2023/04/21 05:51:10;;;;;;;19.58;3.80;;;;;;;21.76;33.16;98043.47;4451449;32;148703;-81
2023/04/21 05:53:39;;;;;;;16.02;4.10;;;;;;;21.16;34.98;98038.16;4455807;32;20115;-81
2023/04/21 05:56:08;;;;;;;12.85;3.22;;;;;;;20.32;37.34;98039.97;4456194;32;20557;-80
2023/04/21 05:58:35;;;;;;;11.38;3.95;;;;;;;20.98;35.22;98034.47;4456223;32;20420;-81
2023/04/21 06:01:02;;;;;;;11.80;3.33;;;;;;;20.22;36.69;98041.69;4455692;32;20419;-80
2023/04/21 06:03:30;;;;;;;19.73;3.45;;;;;;;19.89;36.74;98043.47;4454883;32;20165;-80
2023/04/21 06:05:59;;;;;;;14.65;3.85;;;;;;;18.77;37.83;98040.91;4442276;32;20151;-80
2023/04/21 06:08:26;;;;;;;14.13;3.92;;;;;;;18.93;38.47;98039.75;4455604;32;20077;-80
2023/04/21 06:10:53;;;;;;;12.77;4.00;;;;;;;18.76;39.13;98046.25;4455724;32;20105;-79
2023/04/21 06:13:20;;;;;;;13.60;3.78;;;;;;;18.94;38.35;98041.41;4455923;32;20482;-81
2023/04/21 06:15:47;;;;;;;16.70;4.07;;;;;;;18.70;39.44;98033.66;4455627;32;20150;-80
2023/04/21 06:18:15;;;;;;;11.57;3.33;;;;;;;18.02;39.26;98045.66;4455810;32;20112;-79
2023/04/21 06:20:41;;;;;;;12.30;3.58;;;;;;;17.93;39.15;98041.09;4455582;32;20116;-80
2023/04/21 06:23:08;;;;;;;10.98;3.20;;;;;;;18.65;39.31;98038.41;4455830;32;20104;-79
2023/04/21 06:25:35;;;;;;;11.02;3.25;;;;;;;19.45;36.09;98041.75;4455925;32;20085;-80
2023/04/21 06:28:02;;;;;;;11.20;3.30;;;;;;;18.60;38.66;98035.25;4455460;32;20133;-80
2023/04/21 06:30:29;;;;;;;12.20;4.05;;;;;;;18.42;38.88;98042.72;4455743;32;20158;-79
2023/04/21 06:32:56;;;;;;;9.20;3.40;;;;;;;18.01;39.95;98043.16;4455748;32;20093;-80
2023/04/21 06:35:23;;;;;;;10.30;3.25;;;;;;;18.21;40.42;98047.75;4457252;32;20412;-82
2023/04/21 06:37:50;;;;;;;9.65;3.45;;;;;;;18.54;39.85;98049.63;4466764;32;20057;-79
2023/04/21 06:40:17;;;;;;;9.38;3.70;;;;;;;17.98;40.49;98044.22;4457590;32;20428;-79
2023/04/21 06:42:44;;;;;;;9.70;2.60;;;;;;;18.11;39.03;98044.16;4460908;32;20092;-79
2023/04/21 06:45:11;;;;;;;17.17;3.53;;;;;;;18.27;39.25;98046.44;4460192;32;20451;-80
2023/04/21 06:47:38;;;;;;;9.25;3.45;;;;;;;18.48;38.24;98048.28;4459641;32;20066;-79
2023/04/21 06:50:06;;;;;;;12.02;3.08;;;;;;;18.66;38.32;98042.69;4456969;32;20093;-78
2023/04/21 06:52:33;;;;;;;8.57;3.10;;;;;;;18.50;38.52;98049.03;4457735;32;20089;-81
2023/04/21 06:55:00;;;;;;;11.68;2.53;;;;;;;18.78;36.40;98044.34;4455569;32;20531;-81
2023/04/21 06:57:27;;;;;;;9.43;3.12;;;;;;;18.57;38.44;98046.78;4441277;32;20436;-81
2023/04/21 06:59:53;;;;;;;9.48;3.08;;;;;;;19.01;35.97;98046.03;4441455;32;20174;-82
2023/04/21 07:02:20;;;;;;;8.60;3.35;;;;;;;18.21;38.92;98050.37;4455527;32;20101;-82
2023/04/21 07:04:47;;;;;;;10.75;3.35;;;;;;;18.44;39.03;98041.66;4455087;32;20443;-82
2023/04/21 07:07:15;;;;;;;12.05;3.67;;;;;;;18.92;38.52;98045.91;4455519;32;20203;-82
2023/04/21 07:09:42;;;;;;;21.52;3.72;;;;;;;18.25;38.81;98053.56;4455047;32;20101;-82
2023/04/21 07:12:08;;;;;;;11.70;3.33;;;;;;;18.65;37.82;98036.63;4455046;32;20089;-82
2023/04/21 07:14:35;;;;;;;14.95;3.42;;;;;;;18.00;40.31;98044.94;4455725;32;20212;-83
2023/04/21 07:17:02;;;;;;;13.38;3.85;;;;;;;18.40;39.71;98042.84;4443267;32;20073;-82
2023/04/21 07:19:29;;;;;;;15.35;4.07;;;;;;;18.11;40.15;98041.53;4457296;32;20105;-82
2023/04/21 07:21:57;;;;;;;10.10;3.50;;;;;;;18.62;39.08;98043.84;4457384;32;20097;-82
2023/04/21 07:24:24;;;;;;;11.20;3.35;;;;;;;19.44;37.78;98045.31;4456721;32;20507;-82
2023/04/21 07:26:50;;;;;;;12.20;3.30;;;;;;;19.84;38.37;98045.62;4457342;32;20089;-82
2023/04/21 07:29:17;;;;;;;10.55;3.83;;;;;;;19.04;38.57;98043.22;4456977;32;20105;-82
2023/04/21 07:31:47;;;;;;;10.80;3.67;;;;;;;19.83;36.22;98045.75;4456925;32;20089;-82
2023/04/21 07:34:14;;;;;;;10.68;3.62;;;;;;;20.34;37.45;98037.22;4457017;32;20448;-82
2023/04/21 07:36:41;;;;;;;11.85;4.30;;;;;;;20.68;35.71;98043.13;4457086;32;20112;-82
2023/04/21 07:39:08;;;;;;;9.98;3.12;;;;;;;20.38;35.62;98042.06;4456542;32;20098;-81
2023/04/21 07:41:34;;;;;;;13.62;4.15;;;;;;;19.49;37.21;98040.56;4457244;32;20097;-82
2023/04/21 07:44:01;;;;;;;11.45;3.97;;;;;;;19.55;36.97;98042.72;4443118;32;20486;-82
2023/04/21 07:46:31;;;;;;;12.00;4.35;;;;;;;19.70;36.63;98035.44;4456674;32;20089;-82
2023/04/21 07:48:59;;;;;;;12.25;4.22;;;;;;;18.73;39.23;98042.09;4456905;32;20116;-82
2023/04/21 07:51:30;;;;;;;15.43;4.35;;;;;;;19.75;37.70;98046.34;4457068;32;20111;-82
2023/04/21 07:53:57;;;;;;;9.70;3.67;;;;;;;19.88;35.92;98051.44;4456681;32;20568;-82
2023/04/21 07:56:24;;;;;;;15.77;4.07;;;;;;;19.26;37.61;98039.75;4442776;32;20099;-82
2023/04/21 07:58:51;;;;;;;11.65;4.37;;;;;;;19.72;37.64;98044.00;4456542;32;20101;-82
2023/04/21 08:01:19;;;;;;;13.62;3.85;;;;;;;20.21;35.27;98046.09;4457035;32;20092;-83
2023/04/21 08:03:46;;;;;;;11.93;4.12;;;;;;;20.25;36.85;98040.59;4456807;32;20454;-83
2023/04/21 08:06:13;;;;;;;13.93;4.10;;;;;;;20.98;35.64;98042.34;4456594;32;20085;-83
2023/04/21 08:08:40;;;;;;;12.57;3.92;;;;;;;21.17;34.30;98041.59;4456867;32;20093;-83
2023/04/21 08:11:07;;;;;;;14.30;4.17;;;;;;;21.03;36.13;98042.78;4456648;32;20089;-82
2023/04/21 08:13:36;;;;;;;11.93;3.80;;;;;;;20.95;35.22;98040.81;4456437;32;20099;-83
2023/04/21 08:16:04;;;;;;;12.82;3.55;;;;;;;20.35;36.19;98041.50;4456847;32;20076;-83
2023/04/21 08:18:31;;;;;;;11.15;4.05;;;;;;;20.38;36.37;98043.88;4456698;32;20478;-83
2023/04/21 08:20:58;;;;;;;12.70;4.12;;;;;;;20.49;35.82;98049.91;4456491;32;20132;-83
2023/04/21 08:23:25;;;;;;;9.18;3.47;;;;;;;21.47;33.15;98046.00;4456671;32;20085;-82
2023/04/21 08:25:52;;;;;;;12.57;4.15;;;;;;;21.56;34.69;98053.06;4442337;32;20156;-82
2023/04/21 08:28:19;;;;;;;12.13;3.78;;;;;;;21.27;33.36;98037.25;4456168;32;20109;-82
2023/04/21 08:30:45;;;;;;;11.80;3.92;;;;;;;21.03;35.04;98040.97;4456705;32;20436;-82
2023/04/21 08:33:12;;;;;;;16.48;3.35;;;;;;;21.25;35.11;98039.12;4456617;32;20104;-83
2023/04/21 08:35:40;;;;;;;12.63;4.00;;;;;;;20.87;35.12;98026.69;4456329;32;20107;-83
2023/04/21 08:38:27;;;;;;;15.63;3.83;;;;;;;19.81;37.74;98039.81;4456357;32;20094;-83
2023/04/21 08:40:55;;;;;;;18.73;4.12;;;;;;;21.01;34.92;98040.28;4456382;32;20157;-83
2023/04/21 08:43:22;;;;;;;12.63;3.92;;;;;;;20.47;35.66;98033.50;4456553;32;20440;-83
2023/04/21 08:45:50;;;;;;;10.63;3.25;;;;;;;20.97;34.97;98027.56;4456661;32;20158;-83
2023/04/21 08:48:20;;;;;;;10.98;3.35;;;;;;;21.57;34.17;98036.34;4456049;32;20118;-82
2023/04/21 08:50:51;;;;;;;11.12;3.75;;;;;;;20.78;34.73;98023.88;4456746;32;20481;-81
2023/04/21 08:53:18;;;;;;;10.73;3.22;;;;;;;21.17;35.20;98028.50;4442587;32;20150;-81
2023/04/21 08:55:45;;;;;;;11.70;3.35;;;;;;;22.44;31.55;98031.22;4456180;32;20094;-81
2023/04/21 08:58:25;;;;;;;13.23;4.87;;;;;;;21.05;35.26;98032.97;4457013;32;20113;-83
2023/04/21 09:00:52;;;;;;;12.70;3.47;;;;;;;21.65;34.66;98034.72;4456652;32;20097;-84
2023/04/21 09:03:24;;;;;;;13.23;3.37;;;;;;;22.17;33.23;98029.28;4456672;32;20117;-83
2023/04/21 09:06:06;;;;;;;7.45;2.92;;;;;;;21.56;35.19;98029.44;4456667;32;20101;-84
2023/04/21 09:08:41;;;;;;;9.60;2.60;;;;;;;21.91;32.61;98029.81;4444232;32;20742;-85
2023/04/21 09:11:12;;;;;;;11.43;2.60;;;;;;;21.53;33.67;98024.47;4442472;32;20119;-85
2023/04/21 09:13:42;;;;;;;11.35;2.90;;;;;;;21.76;34.21;98023.28;4458066;32;20545;-85
2023/04/21 09:16:19;;;;;;;10.65;3.03;;;;;;;21.37;33.08;98024.97;4460945;32;20154;-85
2023/04/21 09:18:50;;;;;;;7.57;2.40;;;;;;;22.55;32.45;98012.66;4461899;32;20080;-84
2023/04/21 09:21:18;;;;;;;12.45;3.03;;;;;;;21.82;34.00;98012.25;4463750;32;20106;-82
2023/04/21 09:23:46;;;;;;;7.87;2.50;;;;;;;20.51;34.72;98011.28;4462624;32;20093;-82
2023/04/21 09:26:14;;;;;;;8.80;2.35;;;;;;;20.48;33.92;98010.72;4462711;32;20081;-83
2023/04/21 09:28:42;;;;;;;12.07;2.80;;;;;;;20.62;36.70;98017.44;4464390;32;20057;-83
2023/04/21 09:31:20;;;;;;;7.87;2.35;;;;;;;20.30;35.44;98010.44;4458120;32;20376;-82
2023/04/21 09:33:49;;;;;;;10.20;2.60;;;;;;;20.77;34.83;98019.59;4456829;32;20088;-83
2023/04/21 09:36:20;;;;;;;11.27;3.20;;;;;;;21.53;35.33;98014.81;4456357;32;20096;-83
2023/04/21 09:38:54;;;;;;;7.75;2.70;;;;;;;21.09;36.03;98008.97;4458477;32;20092;-83
2023/04/21 09:41:43;;;;;;;9.27;2.78;;;;;;;20.31;36.46;98006.03;4451485;32;20113;-83
2023/04/21 09:44:09;;;;;;;10.43;2.53;;;;;;;20.73;36.67;98002.44;4462778;32;20111;-83
2023/04/21 09:46:38;;;;;;;6.07;2.35;;;;;;;20.84;35.64;97998.94;4466417;32;20092;-83
2023/04/21 09:49:05;;;;;;;6.32;2.40;;;;;;;21.22;32.97;97998.25;4444202;32;20105;-83
2023/04/21 09:51:33;;;;;;;8.55;2.35;;;;;;;21.54;32.43;97998.09;4461847;32;20154;-82
2023/04/21 09:54:15;;;;;;;8.30;2.42;;;;;;;20.24;33.81;98003.09;4447426;32;20093;-83
2023/04/21 09:56:48;;;;;;;8.70;2.97;;;;;;;20.67;34.53;98000.38;4444275;32;20077;-83
2023/04/21 09:59:26;;;;;;;9.82;2.42;;;;;;;20.96;36.97;98008.38;4457701;32;20119;-82
2023/04/21 10:01:55;;;;;;;12.60;4.10;;;;;;;20.93;35.47;98003.37;4461907;32;20098;-83
2023/04/21 10:04:24;;;;;;;13.88;3.70;;;;;;;20.70;35.95;97999.28;4457335;32;20112;-83
2023/04/21 10:06:52;;;;;;;14.15;4.15;;;;;;;21.01;34.65;97995.69;4455770;32;20157;-83
2023/04/21 10:09:21;;;;;;;12.32;3.00;;;;;;;21.06;37.85;98003.19;4456056;32;20069;-83
2023/04/21 10:11:48;;;;;;;7.55;2.72;;;;;;;20.90;34.90;97995.78;4456097;32;20155;-83
2023/04/21 10:14:15;;;;;;;10.05;2.80;;;;;;;20.68;34.56;97996.78;4455660;32;20089;-83
2023/04/21 10:16:43;;;;;;;7.80;3.12;;;;;;;20.92;34.78;97999.09;4442058;32;20143;-83
2023/04/21 10:19:26;;;;;;;8.43;3.15;;;;;;;21.63;32.75;97997.28;4455611;32;20119;-83
2023/04/21 10:21:56;;;;;;;6.20;2.30;;;;;;;21.20;34.03;97994.94;4456078;32;20104;-83
2023/04/21 10:24:28;;;;;;;8.70;2.65;;;;;;;21.63;31.22;97997.28;4455899;32;20417;-83
2023/04/21 10:26:58;;;;;;;11.98;3.20;;;;;;;21.31;32.12;97996.66;4455969;32;20424;-83
2023/04/21 10:29:30;;;;;;;14.70;3.55;;;;;;;20.71;33.18;97980.78;4456476;32;20170;-82
2023/04/21 10:32:30;;;;;;;8.50;3.20;;;;;;;20.82;34.23;97994.78;4456013;32;20093;-83
2023/04/21 10:34:57;;;;;;;8.05;2.80;;;;;;;21.25;34.15;97989.28;4455522;32;20150;-83
2023/04/21 10:37:24;;;;;;;10.68;3.10;;;;;;;21.49;31.20;97986.34;4455987;32;20469;-83
2023/04/21 10:39:53;;;;;;;11.48;3.50;;;;;;;21.16;33.42;97983.06;4456027;32;20100;-83
2023/04/21 10:42:28;;;;;;;10.30;2.80;;;;;;;21.66;33.28;97978.63;4456610;32;20470;-83
2023/04/21 10:44:55;;;;;;;14.43;3.35;;;;;;;21.75;31.18;97979.59;4458924;32;20089;-84
2023/04/21 10:47:50;;;;;;;9.20;2.72;;;;;;;21.31;33.30;97973.87;4462218;32;20150;-83
2023/04/21 10:50:28;;;;;;;9.82;2.35;;;;;;;21.67;32.67;97982.06;4459265;32;20089;-81
2023/04/21 10:53:11;;;;;;;10.90;3.20;;;;;;;20.92;33.49;97975.50;4444864;32;20101;-81
2023/04/21 10:55:38;;;;;;;7.05;2.85;;;;;;;21.20;32.96;97984.44;4455363;32;20142;-80
2023/04/21 10:58:10;;;;;;;15.05;3.10;;;;;;;21.71;34.96;97970.34;4455355;32;20149;-80
2023/04/21 11:00:38;;;;;;;10.85;2.17;;;;;;;21.81;32.74;97972.97;4441575;32;20096;-80
2023/04/21 11:03:06;;;;;;;11.20;2.50;;;;;;;21.62;33.47;97969.38;4455062;32;20144;-80
2023/04/21 11:05:39;;;;;;;7.25;2.08;;;;;;;20.74;33.44;97974.47;4455563;32;20150;-79
2023/04/21 11:08:13;;;;;;;10.13;3.15;;;;;;;21.02;33.01;97971.13;4455288;32;20077;-80
2023/04/21 11:10:55;;;;;;;10.65;3.12;;;;;;;21.24;31.86;97964.84;4455246;32;20088;-80
2023/04/21 11:13:25;;;;;;;11.12;2.50;;;;;;;21.40;33.39;97971.41;4455226;32;20093;-80
2023/04/21 11:16:00;;;;;;;8.50;2.90;;;;;;;22.01;30.99;97971.16;4455157;32;20134;-79
2023/04/21 11:18:32;;;;;;;9.60;2.92;;;;;;;21.57;33.79;97968.94;4455084;32;20496;-79
2023/04/21 11:21:17;;;;;;;8.57;2.90;;;;;;;21.98;30.95;97968.81;4455394;32;20088;-80
2023/04/21 11:23:49;;;;;;;15.32;3.12;;;;;;;22.00;31.14;97962.44;4454212;32;20447;-80
2023/04/21 11:26:16;;;;;;;12.27;3.28;;;;;;;22.21;30.60;97965.78;4441271;32;20097;-80
2023/04/21 11:28:48;;;;;;;12.57;3.47;;;;;;;21.61;32.94;97964.25;4441229;32;20081;-80
2023/04/21 11:31:15;;;;;;;11.32;3.40;;;;;;;22.09;33.22;97964.28;4454784;32;20580;-80
2023/04/21 11:33:42;;;;;;;13.73;3.50;;;;;;;21.96;35.30;97963.72;4441101;32;20157;-80